Time;durP1;ratioP1;P1;durP2;ratioP2;P2;SDS_P1;SDS_P2;PMS_P1;PMS_P2;Temp;Humidity;BMP_temperature;BMP_pressure;BME280_temperature;BME280_humidity;BME280_pressure;Samples;Min_cycle;Max_cycle;Signal;HPM_P1;HPM_P2
2022/07/10 00:00:13;;;;;;;9.73;6.10;;;19.00;64.10;;;;;;5034590;28;20032;-13
2022/07/10 00:02:41;;;;;;;6.70;4.68;;;19.00;64.10;;;;;;5034186;28;20028;-14
2022/07/10 00:05:09;;;;;;;5.85;4.18;;;18.90;64.30;;;;;;5034396;28;20025;-14
2022/07/10 00:07:35;;;;;;;6.63;4.43;;;18.90;64.10;;;;;;5034111;28;20052;-14
2022/07/10 00:10:02;;;;;;;10.00;5.05;;;18.90;64.20;;;;;;5034334;28;20025;-14
2022/07/10 00:12:28;;;;;;;7.22;4.55;;;18.90;64.60;;;;;;5034392;28;20022;-15
2022/07/10 00:14:54;;;;;;;7.97;5.25;;;18.90;64.50;;;;;;5033977;28;20021;-15
2022/07/10 00:17:20;;;;;;;8.65;5.97;;;18.80;64.20;;;;;;5034048;28;20028;-15
2022/07/10 00:19:46;;;;;;;10.02;5.57;;;18.80;64.20;;;;;;5034204;28;20030;-15
2022/07/10 00:22:12;;;;;;;9.30;6.55;;;18.80;64.30;;;;;;5033864;28;20052;-14
2022/07/10 00:24:38;;;;;;;6.65;5.05;;;18.80;64.70;;;;;;5033625;28;20034;-14
2022/07/10 00:27:04;;;;;;;8.98;5.60;;;18.80;64.40;;;;;;5033797;28;20142;-14
2022/07/10 00:29:30;;;;;;;5.78;4.53;;;18.80;64.30;;;;;;5033635;28;20021;-14
2022/07/10 00:31:56;;;;;;;8.77;5.40;;;18.80;64.30;;;;;;5032928;28;20028;-14
2022/07/10 00:34:22;;;;;;;8.15;5.75;;;18.80;64.10;;;;;;5032011;28;20037;-15
2022/07/10 00:36:48;;;;;;;10.10;5.82;;;18.80;63.80;;;;;;5033622;28;20025;-13
2022/07/10 00:39:14;;;;;;;8.90;5.55;;;18.80;63.80;;;;;;5033577;28;20029;-14
2022/07/10 00:41:40;;;;;;;7.97;5.15;;;18.80;63.80;;;;;;5033664;28;20029;-15
2022/07/10 00:44:06;;;;;;;6.38;4.50;;;18.80;63.90;;;;;;5033888;28;20025;-15
2022/07/10 00:46:32;;;;;;;6.80;4.60;;;18.80;63.80;;;;;;5038604;28;20058;-12
2022/07/10 00:48:58;;;;;;;7.75;5.18;;;18.80;63.70;;;;;;5032373;28;20064;-14
2022/07/10 00:51:26;;;;;;;11.40;5.63;;;18.80;64.00;;;;;;5033397;28;20071;-15
2022/07/10 00:53:53;;;;;;;7.55;5.60;;;18.80;64.10;;;;;;5034178;28;20049;-15
2022/07/10 00:56:22;;;;;;;7.57;5.43;;;18.70;64.60;;;;;;5033389;28;20021;-15
2022/07/10 00:58:49;;;;;;;12.23;7.30;;;18.70;64.50;;;;;;5033285;28;20021;-15
2022/07/10 01:01:16;;;;;;;7.72;5.10;;;18.70;64.50;;;;;;5033951;28;20026;-14
2022/07/10 01:03:46;;;;;;;8.40;5.25;;;18.60;64.20;;;;;;5033373;28;20048;-16
2022/07/10 01:06:14;;;;;;;7.97;4.55;;;18.60;64.10;;;;;;5033135;28;20025;-14
2022/07/10 01:08:40;;;;;;;8.45;4.65;;;18.60;64.20;;;;;;5033137;28;20117;-14
2022/07/10 01:11:06;;;;;;;6.88;4.65;;;18.60;64.10;;;;;;5033135;28;20040;-13
2022/07/10 01:13:32;;;;;;;8.57;5.50;;;18.50;64.10;;;;;;5033119;28;20030;-14
2022/07/10 01:15:58;;;;;;;6.88;5.00;;;18.50;64.40;;;;;;5031911;28;20393;-14
2022/07/10 01:18:25;;;;;;;7.15;4.68;;;18.50;64.50;;;;;;5032913;28;20025;-15
2022/07/10 01:20:53;;;;;;;8.00;5.35;;;18.40;64.50;;;;;;5033056;28;20033;-14
2022/07/10 01:23:19;;;;;;;7.53;5.15;;;18.40;64.40;;;;;;5033361;28;20032;-15
2022/07/10 01:25:46;;;;;;;9.70;5.93;;;18.40;64.50;;;;;;5033136;28;20026;-16
2022/07/10 01:28:12;;;;;;;7.25;4.82;;;18.40;64.50;;;;;;5032987;28;20028;-15
2022/07/10 01:30:38;;;;;;;7.28;4.45;;;18.40;64.30;;;;;;5032730;28;20108;-14
2022/07/10 01:33:04;;;;;;;9.32;4.88;;;18.40;64.10;;;;;;5032864;28;20053;-15
2022/07/10 01:35:30;;;;;;;6.65;4.10;;;18.50;64.00;;;;;;5032925;28;20083;-17
2022/07/10 01:37:56;;;;;;;6.63;4.55;;;18.50;63.70;;;;;;5033325;28;20084;-15
2022/07/10 01:40:22;;;;;;;6.75;4.18;;;18.50;63.40;;;;;;5033091;28;20433;-15
2022/07/10 01:42:48;;;;;;;6.03;4.30;;;18.60;63.30;;;;;;5032694;28;20551;-14
2022/07/10 01:45:17;;;;;;;5.68;3.72;;;18.60;63.30;;;;;;5035055;28;20034;-16
2022/07/10 01:47:44;;;;;;;8.90;5.90;;;18.60;63.10;;;;;;5036582;28;20501;-16
2022/07/10 01:50:10;;;;;;;11.00;4.95;;;18.60;63.00;;;;;;5036779;28;20021;-14
2022/07/10 01:52:36;;;;;;;7.45;5.07;;;18.60;62.90;;;;;;5036501;28;20045;-16
2022/07/10 01:55:04;;;;;;;9.95;5.10;;;18.70;62.70;;;;;;5036940;28;20084;-16
2022/07/10 01:57:30;;;;;;;9.43;5.53;;;18.70;62.70;;;;;;5036915;28;20026;-16
2022/07/10 01:59:56;;;;;;;7.55;5.13;;;18.70;62.50;;;;;;5036802;28;20079;-15
2022/07/10 02:02:22;;;;;;;8.85;5.60;;;18.80;62.40;;;;;;5036339;28;20508;-15
2022/07/10 02:04:48;;;;;;;5.93;3.90;;;18.80;62.50;;;;;;5036593;28;20026;-14
2022/07/10 02:07:16;;;;;;;7.20;4.18;;;18.70;62.50;;;;;;5036974;28;20119;-14
2022/07/10 02:09:43;;;;;;;5.00;3.97;;;18.60;62.40;;;;;;5036658;28;20026;-14
2022/07/10 02:12:12;;;;;;;7.97;5.32;;;18.60;62.60;;;;;;5036434;28;20109;-14
2022/07/10 02:14:38;;;;;;;7.78;4.35;;;18.50;63.10;;;;;;5034876;28;20033;-14
2022/07/10 02:17:05;;;;;;;7.35;4.30;;;18.50;63.10;;;;;;5036218;28;20030;-14
2022/07/10 02:19:31;;;;;;;5.78;4.22;;;18.40;63.10;;;;;;5036240;28;20448;-13
2022/07/10 02:21:58;;;;;;;5.25;3.60;;;18.40;63.30;;;;;;5036124;28;20033;-14
2022/07/10 02:24:24;;;;;;;10.13;4.35;;;18.30;63.20;;;;;;5036489;28;20104;-14
2022/07/10 02:26:50;;;;;;;5.63;4.03;;;18.30;63.20;;;;;;5035955;28;20036;-16
2022/07/10 02:29:17;;;;;;;4.88;3.80;;;18.20;63.40;;;;;;5036300;28;20029;-16
2022/07/10 02:31:44;;;;;;;5.25;4.07;;;18.20;63.90;;;;;;5035853;28;20432;-15
2022/07/10 02:34:14;;;;;;;6.90;3.30;;;18.10;64.10;;;;;;5036289;28;20057;-16
2022/07/10 02:36:40;;;;;;;5.90;3.92;;;18.00;64.20;;;;;;5036001;28;20508;-15
2022/07/10 02:39:07;;;;;;;6.30;4.13;;;18.00;64.60;;;;;;5035960;28;20389;-14
2022/07/10 02:41:35;;;;;;;6.80;4.28;;;18.00;64.90;;;;;;5035729;28;20060;-16
2022/07/10 02:44:02;;;;;;;7.15;4.53;;;17.90;65.20;;;;;;5036022;28;20045;-16
2022/07/10 02:46:28;;;;;;;6.82;4.43;;;17.90;65.60;;;;;;5035665;28;20054;-14
2022/07/10 02:48:54;;;;;;;7.15;4.90;;;17.90;66.00;;;;;;5035549;28;20503;-14
2022/07/10 02:51:20;;;;;;;5.43;3.90;;;17.80;66.10;;;;;;5035613;28;20033;-14
2022/07/10 02:53:46;;;;;;;7.28;4.38;;;17.80;65.80;;;;;;5035525;28;20492;-14
2022/07/10 02:56:12;;;;;;;7.10;4.30;;;17.80;66.00;;;;;;5034589;28;20026;-15
2022/07/10 02:58:39;;;;;;;9.55;4.43;;;17.70;66.20;;;;;;5035518;28;20155;-15
2022/07/10 03:01:05;;;;;;;6.05;4.25;;;17.70;66.30;;;;;;5035415;28;20061;-15
2022/07/10 03:03:32;;;;;;;7.65;4.68;;;17.60;66.50;;;;;;5035288;28;20036;-14
2022/07/10 03:05:59;;;;;;;7.70;4.25;;;17.60;66.50;;;;;;5036099;28;20025;-15
2022/07/10 03:08:25;;;;;;;5.25;4.03;;;17.50;66.70;;;;;;5035048;28;20067;-17
2022/07/10 03:10:51;;;;;;;6.78;4.60;;;17.50;66.60;;;;;;5035525;28;20079;-16
2022/07/10 03:13:17;;;;;;;5.53;3.95;;;17.40;66.90;;;;;;5035215;28;20097;-14
2022/07/10 03:15:43;;;;;;;6.40;4.50;;;17.40;66.80;;;;;;5035150;28;20022;-14
2022/07/10 03:18:09;;;;;;;6.45;4.30;;;17.40;66.90;;;;;;5035161;28;20036;-14
2022/07/10 03:20:35;;;;;;;9.05;5.10;;;17.40;67.00;;;;;;5034970;28;20021;-14
2022/07/10 03:23:01;;;;;;;9.77;4.80;;;17.40;67.60;;;;;;5034974;28;20055;-14
2022/07/10 03:25:27;;;;;;;4.60;3.78;;;17.30;67.60;;;;;;5034881;28;20067;-14
2022/07/10 03:27:53;;;;;;;6.82;4.50;;;17.20;67.40;;;;;;5035282;28;20029;-14
2022/07/10 03:30:19;;;;;;;6.18;4.18;;;17.20;67.40;;;;;;5034754;28;20370;-15
2022/07/10 03:32:46;;;;;;;6.28;3.65;;;17.20;67.80;;;;;;5035705;28;20043;-14
2022/07/10 03:35:12;;;;;;;8.45;4.45;;;17.20;67.40;;;;;;5034751;28;20018;-16
2022/07/10 03:37:38;;;;;;;6.88;4.72;;;17.10;67.50;;;;;;5034985;28;20079;-15
2022/07/10 03:40:04;;;;;;;6.88;4.00;;;17.10;67.90;;;;;;5034899;28;20528;-15
2022/07/10 03:42:30;;;;;;;8.07;4.68;;;17.10;68.10;;;;;;5034427;28;20036;-14
2022/07/10 03:44:56;;;;;;;6.10;3.70;;;17.10;68.10;;;;;;5034455;28;20034;-14
2022/07/10 03:47:22;;;;;;;7.85;4.35;;;17.00;67.80;;;;;;5034358;28;20049;-14
2022/07/10 03:49:49;;;;;;;5.25;3.67;;;17.10;67.80;;;;;;5034428;28;20075;-14
2022/07/10 03:52:15;;;;;;;5.90;3.95;;;17.10;68.00;;;;;;5034482;28;20384;-15
2022/07/10 03:54:41;;;;;;;5.63;4.07;;;17.10;68.20;;;;;;5034708;28;20540;-14
2022/07/10 03:59:52;;;;;;;7.10;4.78;;;17.00;68.20;;;;;;5034383;28;20032;-15
2022/07/10 04:02:18;;;;;;;6.65;4.07;;;17.00;68.40;;;;;;5034945;28;20018;-16
2022/07/10 04:04:44;;;;;;;6.80;4.50;;;17.00;68.60;;;;;;5034100;28;20028;-16
2022/07/10 04:07:12;;;;;;;7.18;4.53;;;16.90;68.80;;;;;;5034041;28;20060;-16
2022/07/10 04:09:39;;;;;;;7.47;4.72;;;16.90;69.30;;;;;;5034191;28;20541;-15
2022/07/10 04:12:05;;;;;;;8.63;5.15;;;16.90;69.70;;;;;;5034358;28;20028;-14
2022/07/10 04:14:31;;;;;;;8.10;5.43;;;16.90;70.60;;;;;;5033800;28;20033;-14
2022/07/10 04:16:57;;;;;;;9.15;6.07;;;17.00;71.10;;;;;;5033139;28;20030;-15
2022/07/10 04:19:23;;;;;;;6.88;4.90;;;17.00;72.30;;;;;;5033873;28;20026;-14
2022/07/10 04:21:49;;;;;;;12.00;6.90;;;17.10;71.80;;;;;;5034795;28;20022;-16
2022/07/10 04:24:15;;;;;;;10.18;5.95;;;17.20;71.40;;;;;;5032561;28;20051;-15
2022/07/10 04:26:42;;;;;;;7.38;5.25;;;17.20;71.00;;;;;;5034508;28;20533;-16
2022/07/10 04:29:08;;;;;;;7.90;4.55;;;17.30;70.30;;;;;;5033730;28;20026;-16
2022/07/10 04:31:34;;;;;;;8.15;6.25;;;17.40;69.90;;;;;;5033756;28;20075;-15
2022/07/10 04:34:00;;;;;;;9.68;5.97;;;17.40;70.00;;;;;;5033761;28;20021;-14
2022/07/10 04:36:26;;;;;;;8.13;5.25;;;17.50;69.50;;;;;;5033462;28;20033;-16
2022/07/10 04:38:52;;;;;;;12.07;6.47;;;17.60;69.20;;;;;;5032410;28;20026;-16
2022/07/10 04:41:18;;;;;;;9.45;5.38;;;17.60;69.20;;;;;;5033794;28;20026;-15
2022/07/10 04:43:44;;;;;;;7.70;5.28;;;17.80;69.70;;;;;;5033840;28;20027;-15
2022/07/10 04:46:10;;;;;;;11.02;5.70;;;17.90;69.50;;;;;;5033122;28;20042;-15
2022/07/10 04:48:36;;;;;;;8.32;5.57;;;17.90;69.40;;;;;;5033479;28;20032;-15
2022/07/10 04:51:02;;;;;;;8.23;5.80;;;18.10;69.20;;;;;;5033389;28;20377;-15
2022/07/10 04:53:28;;;;;;;8.15;5.22;;;18.20;69.30;;;;;;5033677;28;20037;-14
2022/07/10 04:55:54;;;;;;;10.40;6.97;;;18.30;69.70;;;;;;5033585;28;20392;-14
2022/07/10 04:58:20;;;;;;;8.07;5.63;;;18.40;69.10;;;;;;5033349;28;20052;-15
2022/07/10 05:00:46;;;;;;;7.93;5.50;;;18.50;68.50;;;;;;5033149;28;20037;-15
2022/07/10 05:03:15;;;;;;;8.32;6.13;;;18.60;68.40;;;;;;5033064;28;20030;-16
2022/07/10 05:05:41;;;;;;;12.13;6.53;;;18.80;68.30;;;;;;5032405;28;20025;-16
2022/07/10 05:08:07;;;;;;;10.45;7.35;;;18.90;67.50;;;;;;5032008;28;20128;-14
2022/07/10 05:10:33;;;;;;;10.70;6.47;;;19.10;67.10;;;;;;5031667;28;20035;-15
2022/07/10 05:12:59;;;;;;;11.07;7.72;;;19.20;66.90;;;;;;5033141;28;20392;-14
2022/07/10 05:15:25;;;;;;;10.15;6.85;;;19.40;67.00;;;;;;5033307;28;20034;-14
2022/07/10 05:17:51;;;;;;;9.40;6.88;;;19.50;67.30;;;;;;5032664;28;20033;-14
2022/07/10 05:20:17;;;;;;;12.27;7.40;;;19.70;66.60;;;;;;5031448;28;20551;-14
2022/07/10 05:22:43;;;;;;;9.25;6.22;;;19.80;66.50;;;;;;5033892;28;20036;-14
2022/07/10 05:25:09;;;;;;;11.40;7.10;;;19.90;66.10;;;;;;5032955;28;20119;-15
2022/07/10 05:27:35;;;;;;;11.88;6.70;;;20.00;66.10;;;;;;5032980;28;20031;-15
2022/07/10 05:30:01;;;;;;;10.73;6.85;;;20.10;66.20;;;;;;5032976;28;20029;-16
2022/07/10 05:32:27;;;;;;;10.43;6.72;;;20.20;66.30;;;;;;5032689;28;20026;-16
2022/07/10 05:34:53;;;;;;;10.82;7.75;;;20.20;66.30;;;;;;5032867;28;20036;-14
2022/07/10 05:37:19;;;;;;;11.75;7.70;;;20.40;66.20;;;;;;5031710;28;20021;-14
2022/07/10 05:39:45;;;;;;;10.40;7.15;;;20.40;65.80;;;;;;5033214;28;20061;-16
2022/07/10 05:42:11;;;;;;;10.80;6.70;;;20.50;65.60;;;;;;5033150;28;20025;-15
2022/07/10 05:44:37;;;;;;;12.45;8.20;;;20.60;65.60;;;;;;5031462;28;20033;-15
2022/07/10 05:47:03;;;;;;;9.63;6.93;;;20.70;65.40;;;;;;5032650;28;20432;-14
2022/07/10 05:49:29;;;;;;;9.63;6.70;;;20.90;65.90;;;;;;5033008;28;20100;-14
2022/07/10 05:51:55;;;;;;;10.63;8.32;;;21.00;65.10;;;;;;5033019;28;20494;-14
2022/07/10 05:54:21;;;;;;;12.07;8.13;;;21.10;65.00;;;;;;5032542;28;20485;-14
2022/07/10 05:56:47;;;;;;;9.32;6.85;;;21.30;64.50;;;;;;5015114;28;20018;-14
2022/07/10 05:59:13;;;;;;;11.30;7.05;;;21.40;64.10;;;;;;5033303;28;20033;-14
2022/07/10 06:01:39;;;;;;;9.93;6.40;;;21.50;63.70;;;;;;5033477;28;20030;-14
2022/07/10 06:04:05;;;;;;;8.10;6.05;;;21.60;63.70;;;;;;5032751;28;20029;-14
2022/07/10 06:06:31;;;;;;;9.85;6.25;;;21.70;63.00;;;;;;5032905;28;20060;-13
2022/07/10 06:08:58;;;;;;;10.52;7.10;;;21.80;62.60;;;;;;5032850;28;20028;-14
2022/07/10 06:11:24;;;;;;;8.50;5.97;;;21.90;62.00;;;;;;5032806;28;20037;-14
2022/07/10 06:13:50;;;;;;;9.13;6.13;;;22.00;61.70;;;;;;5032951;28;20413;-14
2022/07/10 06:16:16;;;;;;;8.60;5.45;;;22.10;61.40;;;;;;5032368;28;20478;-13
2022/07/10 06:18:42;;;;;;;9.77;6.28;;;22.20;61.10;;;;;;5032938;28;20029;-15
2022/07/10 06:21:08;;;;;;;8.23;5.72;;;22.40;60.80;;;;;;5032785;28;20067;-14
2022/07/10 06:23:34;;;;;;;8.75;6.60;;;22.50;60.70;;;;;;5032483;28;20029;-14
2022/07/10 06:26:00;;;;;;;9.60;6.40;;;22.60;60.70;;;;;;5032611;28;20034;-14
2022/07/10 06:28:26;;;;;;;9.40;5.78;;;22.70;60.20;;;;;;5032240;28;20448;-13
2022/07/10 06:30:52;;;;;;;9.18;5.95;;;22.80;59.70;;;;;;5034149;28;20032;-14
2022/07/10 06:33:18;;;;;;;8.82;5.53;;;22.90;59.10;;;;;;5036204;28;20032;-14
2022/07/10 06:35:44;;;;;;;11.82;5.80;;;23.00;58.80;;;;;;5035024;28;20025;-14
2022/07/10 06:38:10;;;;;;;9.65;5.53;;;23.10;57.80;;;;;;5036135;28;20024;-14
2022/07/10 06:40:37;;;;;;;7.93;5.13;;;23.30;56.80;;;;;;5035867;28;20408;-14
2022/07/10 06:43:03;;;;;;;6.72;4.90;;;23.40;56.40;;;;;;5036096;28;20026;-14
2022/07/10 06:45:31;;;;;;;6.95;4.70;;;23.50;56.20;;;;;;5035574;28;20049;-14
2022/07/10 06:47:57;;;;;;;6.22;4.57;;;23.70;55.90;;;;;;5035497;28;20056;-13
2022/07/10 06:50:34;;;;;;;7.10;3.80;;;23.80;55.60;;;;;;5035763;28;20131;-13
2022/07/10 06:53:01;;;;;;;5.10;3.45;;;23.90;55.30;;;;;;5036214;28;20369;-15
2022/07/10 06:55:28;;;;;;;6.28;3.97;;;24.00;54.90;;;;;;5035885;28;20104;-14
2022/07/10 06:57:55;;;;;;;5.55;4.07;;;24.10;54.30;;;;;;5035851;28;20120;-14
2022/07/10 07:00:21;;;;;;;4.22;3.30;;;24.30;53.30;;;;;;5035212;28;20025;-14
2022/07/10 07:02:47;;;;;;;6.85;3.58;;;24.30;53.20;;;;;;5035326;28;20356;-14
2022/07/10 07:05:14;;;;;;;6.38;3.08;;;24.40;53.00;;;;;;5036449;28;20037;-14
2022/07/10 07:07:41;;;;;;;4.35;3.17;;;24.50;52.70;;;;;;5035850;28;20021;-14
2022/07/10 07:10:10;;;;;;;5.07;2.83;;;24.70;52.60;;;;;;5035311;28;20045;-14
2022/07/10 07:12:36;;;;;;;4.63;3.17;;;24.80;51.80;;;;;;5035356;28;20559;-14
2022/07/10 07:15:03;;;;;;;3.25;2.83;;;24.90;49.00;;;;;;5035271;28;20029;-14
2022/07/10 07:17:45;;;;;;;5.32;3.00;;;25.10;47.80;;;;;;5036226;28;20025;-14
2022/07/10 07:23:12;;;;;;;4.05;2.40;;;25.40;47.50;;;;;;5015993;28;20030;-14
2022/07/10 07:25:46;;;;;;;5.07;2.78;;;25.50;47.40;;;;;;5035300;28;20038;-14
2022/07/10 07:28:15;;;;;;;2.83;2.30;;;25.70;47.30;;;;;;5035298;28;20549;-14
2022/07/10 07:30:42;;;;;;;7.25;2.53;;;25.90;47.00;;;;;;5034837;28;20397;-14
2022/07/10 07:33:08;;;;;;;4.50;2.88;;;25.90;45.90;;;;;;5035062;28;20052;-14
2022/07/10 07:35:34;;;;;;;3.80;2.33;;;26.00;45.60;;;;;;5034406;28;20370;-13
2022/07/10 07:38:02;;;;;;;4.95;2.50;;;26.20;45.40;;;;;;5034792;28;20079;-14
2022/07/10 07:40:28;;;;;;;6.57;2.30;;;26.40;43.60;;;;;;5034674;28;20021;-13
2022/07/10 07:42:55;;;;;;;3.50;2.25;;;26.50;43.60;;;;;;5034686;28;20032;-14
2022/07/10 07:45:23;;;;;;;5.07;2.10;;;26.70;43.40;;;;;;5035244;28;20033;-14
2022/07/10 07:47:52;;;;;;;3.72;2.22;;;26.90;42.20;;;;;;5034503;28;20053;-13
2022/07/10 07:50:21;;;;;;;2.40;1.92;;;27.10;42.60;;;;;;5034338;28;20064;-15
2022/07/10 07:52:48;;;;;;;3.22;2.00;;;27.30;42.50;;;;;;5034705;28;20412;-14
2022/07/10 07:55:16;;;;;;;2.42;1.95;;;27.40;41.70;;;;;;5034417;28;20072;-14
2022/07/10 07:57:43;;;;;;;3.67;1.80;;;27.60;41.50;;;;;;5034674;28;20033;-15
2022/07/10 08:00:11;;;;;;;2.72;1.70;;;27.60;40.20;;;;;;5034723;28;20108;-13
2022/07/10 08:02:37;;;;;;;3.63;1.92;;;27.60;39.30;;;;;;5034370;28;20393;-13
2022/07/10 08:05:07;;;;;;;4.75;1.83;;;27.70;39.70;;;;;;5032890;28;20022;-13
2022/07/10 08:07:39;;;;;;;3.45;1.80;;;27.80;40.10;;;;;;5034193;28;20039;-13
2022/07/10 08:10:07;;;;;;;4.43;2.03;;;28.00;40.00;;;;;;5034461;28;20021;-13
2022/07/10 08:12:33;;;;;;;2.65;1.95;;;28.20;39.90;;;;;;5033852;28;20473;-13
2022/07/10 08:14:59;;;;;;;3.05;1.90;;;28.40;39.00;;;;;;5034643;28;20037;-14
2022/07/10 08:17:26;;;;;;;3.15;1.90;;;28.60;38.90;;;;;;5034333;28;20108;-13
2022/07/10 08:19:53;;;;;;;3.67;2.25;;;28.70;38.50;;;;;;5032627;28;20025;-13
2022/07/10 08:22:19;;;;;;;3.03;1.80;;;28.80;38.90;;;;;;5034314;28;20067;-14
2022/07/10 08:24:46;;;;;;;3.03;1.90;;;28.90;38.20;;;;;;5033947;28;20072;-13
2022/07/10 08:27:12;;;;;;;6.60;2.10;;;29.00;38.60;;;;;;5033719;28;20524;-13
2022/07/10 08:29:38;;;;;;;5.72;1.83;;;29.20;38.60;;;;;;5034615;28;20051;-13
2022/07/10 08:32:05;;;;;;;2.22;1.77;;;29.30;38.10;;;;;;5034052;28;20103;-14
2022/07/10 08:34:32;;;;;;;2.92;1.80;;;29.40;38.00;;;;;;5033389;28;20114;-14
2022/07/10 08:36:59;;;;;;;2.47;1.80;;;29.50;38.00;;;;;;5033961;28;20092;-14
2022/07/10 08:39:25;;;;;;;3.25;1.63;;;29.60;37.30;;;;;;5033631;28;20033;-14
2022/07/10 08:41:52;;;;;;;3.30;2.30;;;29.80;36.00;;;;;;5032340;28;20404;-14
2022/07/10 08:44:18;;;;;;;1.70;1.48;;;30.00;36.30;;;;;;5033587;28;20033;-14
2022/07/10 08:46:45;;;;;;;1.63;1.52;;;30.10;35.60;;;;;;5033581;28;20580;-14
2022/07/10 08:49:13;;;;;;;3.20;1.70;;;30.20;35.20;;;;;;5033409;28;20120;-14
2022/07/10 08:51:59;;;;;;;3.97;1.88;;;30.30;35.50;;;;;;5033747;28;20025;-14
2022/07/10 08:54:28;;;;;;;3.20;1.50;;;30.40;35.90;;;;;;5032706;28;20045;-14
2022/07/10 08:56:57;;;;;;;2.92;1.15;;;30.50;34.40;;;;;;5033936;28;20020;-13
2022/07/10 08:59:24;;;;;;;1.38;1.27;;;30.70;33.50;;;;;;5033323;28;20428;-13
2022/07/10 09:01:52;;;;;;;2.38;1.17;;;30.90;33.00;;;;;;5033558;28;20026;-13
2022/07/10 09:04:20;;;;;;;2.03;1.23;;;31.20;31.50;;;;;;5032978;28;20087;-14
2022/07/10 09:06:46;;;;;;;1.80;1.40;;;31.40;31.30;;;;;;5033174;28;20109;-13
2022/07/10 09:09:13;;;;;;;2.22;1.23;;;31.70;31.00;;;;;;5033151;28;20546;-14
2022/07/10 09:11:42;;;;;;;5.65;1.50;;;32.00;30.80;;;;;;5031840;28;20464;-14
2022/07/10 09:14:16;;;;;;;5.53;1.20;;;32.20;30.00;;;;;;5032014;28;20441;-14
2022/07/10 09:16:49;;;;;;;3.55;1.52;;;32.30;30.70;;;;;;5033366;28;20100;-13
2022/07/10 09:19:22;;;;;;;1.63;1.20;;;32.50;29.70;;;;;;5033274;28;20030;-14
2022/07/10 09:22:09;;;;;;;1.20;1.10;;;32.80;29.70;;;;;;5033384;28;20018;-13
2022/07/10 09:24:41;;;;;;;3.63;1.33;;;33.00;29.40;;;;;;5032893;28;20040;-14
2022/07/10 09:27:09;;;;;;;2.67;1.40;;;33.30;29.10;;;;;;5033034;28;20025;-14
2022/07/10 09:29:57;;;;;;;1.45;1.30;;;33.40;28.60;;;;;;5033022;28;20034;-14
2022/07/10 09:32:24;;;;;;;1.40;1.30;;;33.50;28.80;;;;;;5032735;28;20029;-14
2022/07/10 09:37:43;;;;;;;2.60;1.42;;;33.90;28.60;;;;;;5033000;28;20088;-14
2022/07/10 09:40:10;;;;;;;2.10;1.20;;;33.90;28.50;;;;;;5033280;28;20030;-15
2022/07/10 09:42:38;;;;;;;3.95;1.48;;;33.90;28.40;;;;;;5032654;28;20113;-15
2022/07/10 09:45:13;;;;;;;1.40;1.30;;;33.90;27.60;;;;;;5033057;28;20022;-15
2022/07/10 09:47:40;;;;;;;2.75;1.52;;;33.90;27.80;;;;;;5032806;28;20055;-14
2022/07/10 09:50:33;;;;;;;3.13;1.55;;;33.80;27.40;;;;;;5033340;28;20473;-14
2022/07/10 09:53:06;;;;;;;;;;;33.60;27.30;;;;;;5028879;28;20064;-14
2022/07/10 09:55:34;;;;;;;2.15;1.55;;;33.50;28.10;;;;;;5033071;28;19916;-14
2022/07/10 09:58:08;;;;;;;2.03;1.40;;;33.70;27.80;;;;;;5032719;28;20040;-14
2022/07/10 10:00:39;;;;;;;12.25;1.63;;;34.00;27.80;;;;;;5032621;28;20071;-14
2022/07/10 10:03:07;;;;;;;5.57;1.40;;;34.20;27.70;;;;;;5032644;28;20381;-14
2022/07/10 10:06:03;;;;;;;1.88;1.30;;;34.40;27.40;;;;;;5034902;28;20457;-14
2022/07/10 10:08:49;;;;;;;2.42;1.25;;;34.60;26.90;;;;;;5032879;28;20029;-13
2022/07/10 10:11:20;;;;;;;2.90;1.40;;;34.80;26.40;;;;;;5036426;28;20038;-15
2022/07/10 10:13:48;;;;;;;4.38;1.75;;;34.50;26.80;;;;;;5037241;28;20028;-14
2022/07/10 10:16:14;;;;;;;2.38;1.50;;;34.40;26.80;;;;;;5036267;28;20053;-15
2022/07/10 10:21:28;;;;;;;4.88;1.52;;;34.40;26.90;;;;;;5036302;28;20083;-14
2022/07/10 10:23:55;;;;;;;5.28;1.55;;;34.40;27.40;;;;;;5036307;28;20030;-14
2022/07/10 10:26:25;;;;;;;1.98;1.40;;;34.70;26.70;;;;;;5036164;28;20037;-14
2022/07/10 10:28:54;;;;;;;2.92;1.58;;;34.70;26.80;;;;;;5036081;28;20021;-14
2022/07/10 10:31:22;;;;;;;3.28;1.40;;;34.70;26.80;;;;;;5036584;28;20021;-14
2022/07/10 10:33:50;;;;;;;3.42;1.52;;;34.40;26.80;;;;;;5035948;28;20018;-14
2022/07/10 10:36:41;;;;;;;3.30;1.65;;;34.00;27.60;;;;;;5035772;28;20030;-15
2022/07/10 10:39:19;;;;;;;2.92;1.58;;;33.70;27.70;;;;;;5036292;28;20033;-14
2022/07/10 10:41:52;;;;;;;2.30;1.77;;;33.70;28.40;;;;;;5036583;28;20364;-14
2022/07/10 10:44:18;;;;;;;3.63;1.63;;;33.90;28.10;;;;;;5035649;28;20061;-14
2022/07/10 10:46:50;;;;;;;2.75;1.35;;;34.00;27.90;;;;;;5035641;28;20088;-14
2022/07/10 10:49:18;;;;;;;2.22;1.80;;;33.80;28.10;;;;;;5036013;28;20021;-14
2022/07/10 10:52:03;;;;;;;2.55;1.67;;;33.70;28.30;;;;;;5035915;28;20108;-14
2022/07/10 10:55:03;;;;;;;2.80;1.45;;;33.90;27.90;;;;;;5035456;28;20488;-14
2022/07/10 10:57:32;;;;;;;3.00;1.50;;;33.90;28.00;;;;;;5035548;28;20370;-14
2022/07/10 10:59:59;;;;;;;2.72;1.42;;;34.10;27.70;;;;;;5035527;28;20056;-13
2022/07/10 11:02:34;;;;;;;4.05;1.65;;;34.20;28.10;;;;;;5035373;28;20029;-13
2022/07/10 11:05:18;;;;;;;2.28;1.20;;;34.20;28.20;;;;;;5035241;28;20035;-13
2022/07/10 11:07:54;;;;;;;1.52;1.42;;;34.60;27.90;;;;;;5035707;28;20053;-13
2022/07/10 11:10:26;;;;;;;2.80;1.65;;;35.30;26.90;;;;;;5035097;28;20501;-13
2022/07/10 11:13:12;;;;;;;2.83;1.60;;;35.90;26.50;;;;;;5035864;28;20453;-14
2022/07/10 11:15:42;;;;;;;3.42;1.58;;;36.50;26.10;;;;;;5035963;28;20025;-14
2022/07/10 11:18:12;;;;;;;4.93;1.42;;;37.00;25.20;;;;;;5034890;28;20037;-16
2022/07/10 11:20:49;;;;;;;2.22;1.63;;;37.30;25.30;;;;;;5035216;28;20029;-14
2022/07/10 11:23:33;;;;;;;1.95;1.38;;;37.70;25.10;;;;;;5035075;28;20117;-14
2022/07/10 11:26:07;;;;;;;3.30;1.60;;;38.20;24.10;;;;;;5035270;28;20037;-14
2022/07/10 11:28:49;;;;;;;1.50;1.40;;;38.70;23.90;;;;;;5035411;28;20120;-14
2022/07/10 11:31:16;;;;;;;3.08;1.83;;;39.10;23.60;;;;;;5035822;28;20026;-14
2022/07/10 11:33:45;;;;;;;1.83;1.65;;;38.80;23.70;;;;;;5035097;28;20079;-14
2022/07/10 11:36:16;;;;;;;1.83;1.70;;;38.50;23.70;;;;;;5035148;28;20210;-14
2022/07/10 11:38:44;;;;;;;2.97;1.70;;;38.10;24.00;;;;;;5035342;28;20026;-14
2022/07/10 11:41:22;;;;;;;2.35;1.65;;;37.50;24.70;;;;;;5034723;28;20037;-14
2022/07/10 11:43:58;;;;;;;2.78;1.80;;;36.70;24.90;;;;;;5035009;28;20025;-13
2022/07/10 11:46:27;;;;;;;1.60;1.50;;;36.10;25.80;;;;;;5032906;28;20398;-13
2022/07/10 11:48:56;;;;;;;1.58;1.48;;;35.80;26.40;;;;;;5034943;28;20017;-13
2022/07/10 11:51:27;;;;;;;2.72;1.60;;;35.70;26.70;;;;;;5034834;28;20037;-13
2022/07/10 11:54:00;;;;;;;2.10;1.52;;;35.80;26.60;;;;;;5034502;28;20026;-13
2022/07/10 11:56:28;;;;;;;1.55;1.40;;;36.00;26.30;;;;;;5033046;28;20478;-13
2022/07/10 11:59:06;;;;;;;1.60;1.50;;;36.20;25.80;;;;;;5034785;28;20025;-13
2022/07/10 12:01:45;;;;;;;3.05;1.45;;;35.90;26.10;;;;;;5034696;28;20032;-13
2022/07/10 12:04:12;;;;;;;3.00;1.48;;;35.80;26.60;;;;;;5034213;28;20495;-14
2022/07/10 12:06:44;;;;;;;3.97;1.45;;;35.70;26.80;;;;;;5032730;28;20036;-13
2022/07/10 12:09:14;;;;;;;3.22;1.63;;;35.70;26.60;;;;;;5034381;28;20036;-13
2022/07/10 12:12:16;;;;;;;2.40;1.80;;;35.40;26.70;;;;;;5034306;28;20030;-13
2022/07/10 12:14:42;;;;;;;1.65;1.20;;;35.20;27.00;;;;;;4992804;28;20037;-13
2022/07/10 12:17:12;;;;;;;1.92;1.50;;;35.20;27.30;;;;;;4992531;28;20026;-13
2022/07/10 12:19:39;;;;;;;3.28;1.92;;;35.40;27.30;;;;;;4992509;28;20030;-13
2022/07/10 12:22:06;;;;;;;4.03;1.73;;;35.60;26.70;;;;;;4992579;28;20046;-13
2022/07/10 12:24:33;;;;;;;2.00;1.40;;;35.90;26.80;;;;;;4992377;28;20044;-14
2022/07/10 12:26:59;;;;;;;1.20;1.10;;;36.30;26.40;;;;;;4992685;28;20052;-14
2022/07/10 12:29:27;;;;;;;1.90;1.40;;;36.80;26.30;;;;;;4992416;28;20125;-13
2022/07/10 12:32:03;;;;;;;3.13;1.50;;;37.50;26.10;;;;;;4993202;28;20034;-14
2022/07/10 12:34:43;;;;;;;3.20;1.30;;;38.40;24.80;;;;;;4992123;28;20026;-14
2022/07/10 12:37:13;;;;;;;2.30;1.55;;;39.20;23.70;;;;;;4992465;28;20037;-14
2022/07/10 12:39:53;;;;;;;2.25;1.38;;;39.80;23.30;;;;;;4992285;28;20034;-13
2022/07/10 12:42:30;;;;;;;2.38;1.38;;;40.30;23.00;;;;;;4992017;28;20524;-14
2022/07/10 12:45:13;;;;;;;1.92;1.65;;;40.80;23.00;;;;;;4992424;28;20043;-13
2022/07/10 12:47:50;;;;;;;1.58;1.40;;;40.90;22.60;;;;;;4975644;28;20077;-13
2022/07/10 12:50:18;;;;;;;3.55;1.50;;;40.60;22.70;;;;;;5012500;28;20116;-14
2022/07/10 12:52:44;;;;;;;1.50;1.33;;;40.30;22.80;;;;;;5033748;28;20021;-13
2022/07/10 12:55:14;;;;;;;1.75;1.42;;;39.90;23.30;;;;;;5034275;28;20025;-13
2022/07/10 12:57:57;;;;;;;2.97;1.60;;;39.40;23.70;;;;;;5033345;28;20049;-13
2022/07/10 13:00:33;;;;;;;2.47;1.50;;;38.70;23.80;;;;;;5033166;28;20028;-14
2022/07/10 13:03:00;;;;;;;2.70;1.55;;;37.70;24.50;;;;;;5033604;28;20112;-14